EXS4NX EGNT-LBBG
Flight info
| Callsign | EXS4NX |
|---|---|
| Flight time | N/A |
| Altitude | 37000 |
| Route | GIRLI DCT GASKO DCT MAMUL L603 LAMSO DCT PETIK DCT SONEB DCT HMM DCT NOMKA DCT SUVUT L620 SULED DCT OMELO DCT GOLOP DCT KOZLI DCT BNO DCT ODNEM DCT BERVA DCT NIT DCT ERGOM DCT DODAR DCT TEGRI DCT DITAX DCT GIKUN DCT APROB DCT AMTOV N605 ALIVI L742 ESENA |
| Aircraft | B738/M-SDE2E3FGHIRWXY/LB1 |
Departure
| Time | N/A |
|---|---|
| Airport | Newcastle International Airport (EGNT) |
Arrival
| Time | 2026-05-07 18:39 |
|---|---|
| Airport | Burgas Airport (LBBG) |
| Time | Latitude | Longitude | Altitude | Speed | Heading |
|---|---|---|---|---|---|
| 2026-05-07 17:59 | 44.43050 | 24.11290 | 37045 ft | 463 kts | 128° |
| 2026-05-07 18:00 | 44.40557 | 24.16208 | 37044 ft | 463 kts | 128° |
| 2026-05-07 18:00 | 44.35212 | 24.26732 | 37030 ft | 462 kts | 128° |
| 2026-05-07 18:01 | 44.31480 | 24.34056 | 37041 ft | 460 kts | 129° |
| 2026-05-07 18:01 | 44.27768 | 24.41321 | 37028 ft | 460 kts | 128° |
| 2026-05-07 18:02 | 44.22193 | 24.52202 | 37044 ft | 459 kts | 129° |
| 2026-05-07 18:03 | 44.18459 | 24.59464 | 37039 ft | 459 kts | 129° |
| 2026-05-07 18:03 | 44.14712 | 24.66736 | 37040 ft | 460 kts | 129° |
| 2026-05-07 18:04 | 44.10983 | 24.73955 | 37035 ft | 460 kts | 129° |
| 2026-05-07 18:04 | 44.07223 | 24.81217 | 37022 ft | 461 kts | 129° |
| 2026-05-07 18:06 | 43.91643 | 25.08843 | 37027 ft | 458 kts | 137° |
| 2026-05-07 18:07 | 43.87162 | 25.15201 | 36846 ft | 462 kts | 137° |
| 2026-05-07 18:07 | 43.84942 | 25.18378 | 36428 ft | 461 kts | 137° |
| 2026-05-07 18:07 | 43.82725 | 25.21578 | 36023 ft | 454 kts | 137° |
| 2026-05-07 18:07 | 43.80576 | 25.24694 | 35624 ft | 450 kts | 137° |
| 2026-05-07 18:08 | 43.78431 | 25.27810 | 35219 ft | 445 kts | 137° |
| 2026-05-07 18:08 | 43.76301 | 25.30904 | 34827 ft | 440 kts | 137° |
| 2026-05-07 18:08 | 43.74193 | 25.33962 | 34427 ft | 436 kts | 136° |
| 2026-05-07 18:08 | 43.72094 | 25.37003 | 34042 ft | 432 kts | 136° |
| 2026-05-07 18:09 | 43.70021 | 25.40002 | 33618 ft | 428 kts | 136° |
| 2026-05-07 18:09 | 43.67989 | 25.42938 | 33216 ft | 424 kts | 136° |
| 2026-05-07 18:09 | 43.65955 | 25.45873 | 32834 ft | 420 kts | 136° |
| 2026-05-07 18:09 | 43.63939 | 25.48780 | 32458 ft | 416 kts | 136° |
| 2026-05-07 18:10 | 43.61936 | 25.51664 | 32091 ft | 413 kts | 136° |
| 2026-05-07 18:10 | 43.59968 | 25.54496 | 31724 ft | 409 kts | 136° |
| 2026-05-07 18:10 | 43.58001 | 25.57323 | 31352 ft | 406 kts | 136° |
| 2026-05-07 18:10 | 43.56045 | 25.60130 | 30998 ft | 403 kts | 136° |
| 2026-05-07 18:11 | 43.54131 | 25.62877 | 30646 ft | 400 kts | 136° |
| 2026-05-07 18:11 | 43.52827 | 25.64745 | 30410 ft | 399 kts | 136° |
| 2026-05-07 18:11 | 43.50276 | 25.68398 | 29922 ft | 396 kts | 136° |
| 2026-05-07 18:11 | 43.48388 | 25.71097 | 29529 ft | 393 kts | 136° |
| 2026-05-07 18:12 | 43.46483 | 25.73819 | 29151 ft | 393 kts | 136° |
| 2026-05-07 18:12 | 43.44555 | 25.76568 | 28794 ft | 402 kts | 136° |
| 2026-05-07 18:12 | 43.42611 | 25.79338 | 28410 ft | 406 kts | 136° |
| 2026-05-07 18:12 | 43.40645 | 25.82140 | 28011 ft | 403 kts | 136° |
| 2026-05-07 18:13 | 43.38722 | 25.84880 | 27637 ft | 398 kts | 136° |
| 2026-05-07 18:13 | 43.36802 | 25.87612 | 27269 ft | 394 kts | 136° |
| 2026-05-07 18:13 | 43.34895 | 25.90323 | 26902 ft | 390 kts | 136° |
| 2026-05-07 18:13 | 43.33030 | 25.92970 | 26543 ft | 387 kts | 136° |
| 2026-05-07 18:14 | 43.31151 | 25.95634 | 26192 ft | 383 kts | 136° |
| 2026-05-07 18:14 | 43.29301 | 25.98256 | 25834 ft | 380 kts | 136° |
| 2026-05-07 18:14 | 43.27486 | 26.00824 | 25492 ft | 376 kts | 136° |
| 2026-05-07 18:14 | 43.25668 | 26.03395 | 25138 ft | 374 kts | 136° |
| 2026-05-07 18:15 | 43.23853 | 26.05960 | 24784 ft | 371 kts | 136° |
| 2026-05-07 18:15 | 43.22056 | 26.08497 | 24446 ft | 368 kts | 136° |
| 2026-05-07 18:15 | 43.20289 | 26.10988 | 24108 ft | 366 kts | 136° |
| 2026-05-07 18:15 | 43.18603 | 26.13617 | 23751 ft | 366 kts | 124° |
| 2026-05-07 18:16 | 43.17586 | 26.16806 | 23427 ft | 366 kts | 104° |
| 2026-05-07 18:16 | 43.17338 | 26.20243 | 23162 ft | 361 kts | 89° |
| 2026-05-07 18:16 | 43.17451 | 26.23667 | 22826 ft | 358 kts | 87° |
| 2026-05-07 18:16 | 43.17598 | 26.27033 | 22482 ft | 356 kts | 87° |
| 2026-05-07 18:17 | 43.17736 | 26.30414 | 22150 ft | 353 kts | 88° |
| 2026-05-07 18:17 | 43.17855 | 26.33775 | 21812 ft | 351 kts | 88° |
| 2026-05-07 18:17 | 43.17958 | 26.37082 | 21474 ft | 348 kts | 88° |
| 2026-05-07 18:17 | 43.18053 | 26.40400 | 21145 ft | 346 kts | 88° |
| 2026-05-07 18:18 | 43.18146 | 26.43694 | 20822 ft | 344 kts | 88° |
| 2026-05-07 18:18 | 43.18234 | 26.46938 | 20492 ft | 342 kts | 88° |
| 2026-05-07 18:18 | 43.18321 | 26.50192 | 20164 ft | 341 kts | 88° |
| 2026-05-07 18:18 | 43.18379 | 26.52356 | 19948 ft | 339 kts | 88° |
| 2026-05-07 18:19 | 43.18465 | 26.55589 | 19625 ft | 338 kts | 88° |
| 2026-05-07 18:19 | 43.18550 | 26.58814 | 19302 ft | 337 kts | 88° |
| 2026-05-07 18:19 | 43.18582 | 26.62023 | 18975 ft | 335 kts | 96° |
| 2026-05-07 18:19 | 43.17981 | 26.65050 | 18654 ft | 333 kts | 117° |
| 2026-05-07 18:20 | 43.16674 | 26.67655 | 18323 ft | 330 kts | 134° |
| 2026-05-07 18:20 | 43.15088 | 26.69914 | 17976 ft | 328 kts | 136° |
| 2026-05-07 18:20 | 43.13482 | 26.72132 | 17625 ft | 326 kts | 136° |
| 2026-05-07 18:20 | 43.11912 | 26.74306 | 17304 ft | 324 kts | 135° |
| 2026-05-07 18:21 | 43.10329 | 26.76516 | 16983 ft | 322 kts | 135° |
| 2026-05-07 18:21 | 43.08770 | 26.78710 | 16668 ft | 319 kts | 135° |
| 2026-05-07 18:21 | 43.07241 | 26.80871 | 16362 ft | 317 kts | 135° |
| 2026-05-07 18:21 | 43.05708 | 26.83042 | 16061 ft | 315 kts | 135° |
| 2026-05-07 18:22 | 43.04201 | 26.85173 | 15757 ft | 313 kts | 135° |
| 2026-05-07 18:22 | 43.03190 | 26.86599 | 15560 ft | 312 kts | 136° |
| 2026-05-07 18:22 | 43.00854 | 26.88868 | 15203 ft | 305 kts | 152° |
| 2026-05-07 18:22 | 42.98975 | 26.90233 | 14906 ft | 304 kts | 153° |
| 2026-05-07 18:23 | 42.97107 | 26.91568 | 14606 ft | 302 kts | 153° |
| 2026-05-07 18:23 | 42.95275 | 26.92887 | 14313 ft | 301 kts | 153° |
| 2026-05-07 18:23 | 42.93423 | 26.94233 | 14012 ft | 300 kts | 153° |
| 2026-05-07 18:23 | 42.91571 | 26.95591 | 13695 ft | 299 kts | 153° |
| 2026-05-07 18:24 | 42.89749 | 26.96932 | 13365 ft | 298 kts | 152° |
| 2026-05-07 18:24 | 42.87945 | 26.98264 | 13062 ft | 297 kts | 153° |
| 2026-05-07 18:24 | 42.86111 | 26.99620 | 12751 ft | 295 kts | 153° |
| 2026-05-07 18:24 | 42.84337 | 27.00932 | 12457 ft | 293 kts | 152° |
| 2026-05-07 18:25 | 42.82534 | 27.02265 | 12166 ft | 291 kts | 153° |
| 2026-05-07 18:25 | 42.80771 | 27.03569 | 11874 ft | 289 kts | 153° |
| 2026-05-07 18:25 | 42.78998 | 27.04880 | 11584 ft | 288 kts | 152° |
| 2026-05-07 18:25 | 42.77238 | 27.06180 | 11300 ft | 287 kts | 152° |
| 2026-05-07 18:26 | 42.75499 | 27.07462 | 11032 ft | 290 kts | 152° |
| 2026-05-07 18:26 | 42.73721 | 27.08772 | 10898 ft | 290 kts | 153° |
| 2026-05-07 18:26 | 42.71923 | 27.10098 | 10653 ft | 295 kts | 153° |
| 2026-05-07 18:26 | 42.70133 | 27.11419 | 10338 ft | 295 kts | 152° |
| 2026-05-07 18:27 | 42.68347 | 27.12737 | 10147 ft | 289 kts | 152° |
| 2026-05-07 18:27 | 42.66594 | 27.14030 | 9981 ft | 283 kts | 152° |
| 2026-05-07 18:27 | 42.64862 | 27.15307 | 9666 ft | 281 kts | 153° |
| 2026-05-07 18:27 | 42.63146 | 27.16571 | 9384 ft | 279 kts | 153° |
| 2026-05-07 18:28 | 42.61436 | 27.17830 | 9120 ft | 277 kts | 153° |
| 2026-05-07 18:28 | 42.59760 | 27.19063 | 8852 ft | 275 kts | 153° |
| 2026-05-07 18:28 | 42.58075 | 27.20302 | 8583 ft | 272 kts | 153° |
| 2026-05-07 18:28 | 42.56409 | 27.21526 | 8326 ft | 270 kts | 153° |
| 2026-05-07 18:29 | 42.54777 | 27.22724 | 8209 ft | 262 kts | 153° |
| 2026-05-07 18:29 | 42.53237 | 27.23855 | 8088 ft | 255 kts | 153° |
| 2026-05-07 18:29 | 42.51646 | 27.24992 | 7968 ft | 247 kts | 159° |
| 2026-05-07 18:29 | 42.49993 | 27.25291 | 7830 ft | 236 kts | 192° |
| 2026-05-07 18:30 | 42.48487 | 27.24456 | 7640 ft | 234 kts | 214° |
| 2026-05-07 18:30 | 42.47254 | 27.23021 | 7400 ft | 232 kts | 225° |
| 2026-05-07 18:30 | 42.46116 | 27.21496 | 7162 ft | 232 kts | 225° |
| 2026-05-07 18:30 | 42.44968 | 27.19958 | 6922 ft | 231 kts | 225° |
| 2026-05-07 18:31 | 42.43820 | 27.18429 | 6676 ft | 231 kts | 225° |
| 2026-05-07 18:31 | 42.42665 | 27.16904 | 6415 ft | 231 kts | 224° |
| 2026-05-07 18:31 | 42.41363 | 27.15652 | 6135 ft | 232 kts | 198° |
| 2026-05-07 18:31 | 42.39782 | 27.15556 | 5900 ft | 233 kts | 167° |
| 2026-05-07 18:32 | 42.38322 | 27.16529 | 5665 ft | 237 kts | 142° |
| 2026-05-07 18:32 | 42.37135 | 27.18082 | 5438 ft | 237 kts | 136° |
| 2026-05-07 18:32 | 42.36062 | 27.19778 | 5174 ft | 239 kts | 121° |
| 2026-05-07 18:32 | 42.35701 | 27.21923 | 4926 ft | 241 kts | 83° |
| 2026-05-07 18:33 | 42.36361 | 27.23998 | 4714 ft | 238 kts | 52° |
| 2026-05-07 18:33 | 42.37435 | 27.25641 | 4476 ft | 233 kts | 45° |
| 2026-05-07 18:33 | 42.38557 | 27.27130 | 4384 ft | 217 kts | 44° |
| 2026-05-07 18:33 | 42.39611 | 27.28511 | 4278 ft | 204 kts | 44° |
| 2026-05-07 18:34 | 42.40637 | 27.29860 | 3870 ft | 207 kts | 44° |
| 2026-05-07 18:34 | 42.41658 | 27.31208 | 3605 ft | 202 kts | 44° |
| 2026-05-07 18:34 | 42.42649 | 27.32520 | 3389 ft | 196 kts | 44° |
| 2026-05-07 18:34 | 42.43629 | 27.33817 | 3198 ft | 197 kts | 44° |
| 2026-05-07 18:35 | 42.44603 | 27.35106 | 2993 ft | 198 kts | 44° |
| 2026-05-07 18:35 | 42.45580 | 27.36400 | 2796 ft | 197 kts | 45° |
| 2026-05-07 18:35 | 42.46563 | 27.37701 | 2592 ft | 192 kts | 45° |
| 2026-05-07 18:35 | 42.47468 | 27.38899 | 2438 ft | 174 kts | 45° |
| 2026-05-07 18:36 | 42.48320 | 27.40025 | 2205 ft | 168 kts | 46° |
| 2026-05-07 18:36 | 42.49157 | 27.41134 | 2001 ft | 168 kts | 46° |
| 2026-05-07 18:36 | 42.49979 | 27.42221 | 1773 ft | 165 kts | 46° |
| 2026-05-07 18:36 | 42.50797 | 27.43303 | 1550 ft | 163 kts | 46° |
| 2026-05-07 18:37 | 42.51605 | 27.44372 | 1341 ft | 159 kts | 48° |
| 2026-05-07 18:37 | 42.52392 | 27.45412 | 1126 ft | 156 kts | 46° |
| 2026-05-07 18:37 | 42.53163 | 27.46433 | 927 ft | 153 kts | 45° |
| 2026-05-07 18:37 | 42.53923 | 27.47437 | 723 ft | 151 kts | 46° |
| 2026-05-07 18:38 | 42.54678 | 27.48435 | 536 ft | 153 kts | 46° |
| 2026-05-07 18:38 | 42.55448 | 27.49448 | 349 ft | 153 kts | 45° |
| 2026-05-07 18:38 | 42.56205 | 27.50455 | 185 ft | 148 kts | 45° |
| 2026-05-07 18:38 | 42.56854 | 27.51321 | 173 ft | 103 kts | 45° |
| 2026-05-07 18:39 | 42.57214 | 27.51789 | 173 ft | 49 kts | 45° |
| 2026-05-07 18:39 | 42.57279 | 27.52077 | 172 ft | 16 kts | 90° |
| 2026-05-07 18:39 | 42.57256 | 27.52217 | 172 ft | 15 kts | 136° |
| 2026-05-07 18:39 | 42.57162 | 27.52205 | 173 ft | 15 kts | 219° |
| 2026-05-07 18:40 | 42.57084 | 27.52118 | 173 ft | 14 kts | 220° |
| 2026-05-07 18:40 | 42.57010 | 27.52032 | 173 ft | 14 kts | 220° |
| 2026-05-07 18:40 | 42.56936 | 27.51947 | 173 ft | 14 kts | 221° |
| 2026-05-07 18:40 | 42.56861 | 27.51862 | 173 ft | 14 kts | 220° |
| 2026-05-07 18:41 | 42.56797 | 27.51771 | 173 ft | 13 kts | 232° |
| 2026-05-07 18:41 | 42.56738 | 27.51678 | 173 ft | 13 kts | 230° |
| 2026-05-07 18:41 | 42.56679 | 27.51582 | 173 ft | 9 kts | 229° |
| 2026-05-07 18:41 | 42.56658 | 27.51550 | 173 ft | 4 kts | 227° |
| 2026-05-07 18:42 | 42.56645 | 27.51531 | 173 ft | 7 kts | 227° |
| 2026-05-07 18:42 | 42.56616 | 27.51485 | 172 ft | 3 kts | 240° |
| 2026-05-07 18:42 | 42.56601 | 27.51466 | 172 ft | 3 kts | 224° |
| 2026-05-07 18:42 | 42.56587 | 27.51446 | 172 ft | 3 kts | 232° |
| 2026-05-07 18:43 | 42.56592 | 27.51416 | 172 ft | 9 kts | 321° |
| 2026-05-07 18:43 | 42.56641 | 27.51412 | 172 ft | 3 kts | 1° |
| 2026-05-07 18:43 | 42.56648 | 27.51413 | 172 ft | 0 kts | 2° |